createdAt,value
2019-05-10T00:00:09.640Z,80.87
2019-05-10T00:02:56.239Z,80.95
2019-05-10T00:05:44.868Z,81.32
2019-05-10T00:08:31.473Z,81.28
2019-05-10T00:11:07.894Z,81.06
2019-05-10T00:13:41.448Z,80.40
2019-05-10T00:16:09.919Z,80.36
2019-05-10T00:18:38.343Z,80.39
2019-05-10T00:21:06.827Z,80.34
2019-05-10T00:23:35.303Z,80.08
2019-05-10T00:26:03.709Z,80.20
2019-05-10T00:28:32.173Z,79.84
2019-05-10T00:31:00.587Z,79.66
2019-05-10T00:33:28.979Z,79.80
2019-05-10T00:35:57.709Z,79.99
2019-05-10T00:38:26.095Z,79.99
2019-05-10T00:40:54.492Z,79.84
2019-05-10T00:43:23.181Z,79.89
2019-05-10T00:45:51.584Z,79.96
2019-05-10T00:48:20.061Z,79.96
2019-05-10T00:50:48.467Z,79.99
2019-05-10T00:53:16.872Z,80.00
2019-05-10T00:55:45.604Z,79.89
2019-05-10T00:58:14.006Z,79.25
2019-05-10T01:00:42.426Z,78.44
2019-05-10T01:03:10.795Z,78.35
2019-05-10T01:05:39.638Z,78.85
2019-05-10T01:08:08.035Z,79.00
2019-05-10T01:10:36.446Z,79.00
2019-05-10T01:13:05.602Z,79.02
2019-05-10T01:15:34.012Z,78.84
2019-05-10T01:18:02.686Z,78.64
2019-05-10T01:20:31.191Z,78.64
2019-05-10T01:22:59.850Z,78.83
2019-05-10T01:25:35.382Z,78.90
2019-05-10T01:27:58.392Z,79.06
2019-05-10T01:30:26.781Z,79.01
2019-05-10T01:32:55.639Z,78.83
2019-05-10T01:35:24.327Z,78.11
2019-05-10T01:37:52.721Z,76.85
2019-05-10T01:40:21.193Z,76.55
2019-05-10T01:42:49.583Z,76.02
2019-05-10T01:45:17.999Z,76.10
2019-05-10T01:47:46.852Z,76.10
2019-05-10T01:50:15.651Z,76.01
2019-05-10T01:52:44.039Z,76.01
2019-05-10T01:55:12.600Z,75.59
2019-05-10T01:57:41.024Z,75.65
2019-05-10T02:00:10.844Z,75.54
2019-05-10T02:02:39.325Z,75.57
2019-05-10T02:05:08.969Z,75.62
2019-05-10T02:07:37.537Z,75.89
2019-05-10T02:10:07.180Z,75.47
2019-05-10T02:12:35.590Z,75.50
2019-05-10T02:15:05.759Z,75.67
2019-05-10T02:17:34.168Z,75.09
2019-05-10T02:20:02.647Z,75.09
2019-05-10T02:22:31.072Z,74.65
2019-05-10T02:24:59.760Z,75.92
2019-05-10T02:27:28.383Z,75.52
2019-05-10T02:29:56.786Z,75.52
2019-05-10T02:32:25.256Z,75.47
2019-05-10T02:34:54.025Z,74.94
2019-05-10T02:37:22.703Z,74.84
2019-05-10T02:39:51.087Z,75.45
2019-05-10T02:42:19.497Z,75.45
2019-05-10T02:44:48.165Z,75.23
2019-05-10T02:47:16.562Z,75.71
2019-05-10T02:49:44.965Z,75.71
2019-05-10T02:52:13.363Z,75.90
2019-05-10T02:54:43.643Z,75.07
2019-05-10T02:57:13.405Z,74.88
2019-05-10T02:59:43.667Z,74.93
2019-05-10T03:02:14.280Z,74.92
2019-05-10T03:04:45.739Z,75.05
2019-05-10T03:07:17.598Z,75.05
2019-05-10T03:09:50.370Z,75.59
2019-05-10T03:12:24.379Z,76.55
2019-05-10T03:14:55.108Z,76.81
2019-05-10T03:17:24.658Z,76.81
2019-05-10T03:19:54.475Z,76.93
2019-05-10T03:22:25.492Z,76.73
2019-05-10T03:24:54.309Z,76.73
2019-05-10T03:27:23.060Z,76.68
2019-05-10T03:29:51.998Z,76.20
2019-05-10T03:32:20.570Z,76.39
2019-05-10T03:34:49.761Z,76.39
2019-05-10T03:37:18.632Z,76.75
2019-05-10T03:39:47.048Z,77.01
2019-05-10T03:42:15.968Z,76.82
2019-05-10T03:44:44.460Z,76.18
2019-05-10T03:47:12.847Z,76.24
2019-05-10T03:49:41.259Z,77.20
2019-05-10T03:52:09.656Z,77.20
2019-05-10T03:54:38.047Z,78.15
2019-05-10T03:57:13.857Z,79.39
2019-05-10T03:59:36.917Z,79.39
2019-05-10T04:02:05.408Z,79.67
2019-05-10T04:04:33.867Z,79.67
2019-05-10T04:07:02.503Z,80.18
2019-05-10T04:09:31.155Z,80.50
2019-05-10T04:11:59.551Z,80.83
2019-05-10T04:14:28.223Z,80.83
2019-05-10T04:16:56.628Z,80.75
2019-05-10T04:19:25.039Z,80.93
2019-05-10T04:21:53.680Z,80.93
2019-05-10T04:24:22.093Z,80.86
2019-05-10T04:26:50.482Z,81.10
2019-05-10T04:29:18.913Z,81.45
2019-05-10T04:31:47.298Z,81.45
2019-05-10T04:34:15.707Z,81.85
2019-05-10T04:36:44.105Z,81.89
2019-05-10T04:39:12.538Z,81.89
2019-05-10T04:41:40.981Z,81.87
2019-05-10T04:44:09.377Z,82.06
2019-05-10T04:46:38.036Z,82.12
2019-05-10T04:49:06.462Z,82.11
2019-05-10T04:51:34.842Z,82.28
2019-05-10T04:54:03.233Z,82.52
2019-05-10T04:56:31.985Z,82.08
2019-05-10T04:59:00.391Z,81.99
2019-05-10T05:01:30.577Z,81.99
2019-05-10T05:03:58.969Z,82.10
2019-05-10T05:06:27.715Z,82.10
2019-05-10T05:08:56.111Z,81.90
2019-05-10T05:11:24.507Z,81.90
2019-05-10T05:13:52.903Z,82.22
2019-05-10T05:16:21.311Z,82.49
2019-05-10T05:18:49.718Z,82.49
2019-05-10T05:21:18.133Z,82.48
2019-05-10T05:23:46.520Z,82.45
2019-05-10T05:26:15.294Z,82.45
2019-05-10T05:28:43.913Z,82.58
2019-05-10T05:31:12.303Z,82.38
2019-05-10T05:33:40.759Z,82.60
2019-05-10T05:36:12.978Z,82.36
2019-05-10T05:38:47.271Z,82.36
2019-05-10T05:41:12.038Z,82.68
2019-05-10T05:43:45.329Z,82.77
2019-05-10T05:46:14.180Z,82.86
2019-05-10T05:48:40.869Z,82.86
2019-05-10T05:51:09.660Z,82.83
2019-05-10T05:53:42.310Z,82.56
2019-05-10T05:56:12.735Z,82.56
2019-05-10T05:58:44.258Z,82.64
2019-05-10T06:01:08.420Z,82.64
2019-05-10T06:03:37.108Z,82.70
2019-05-10T06:06:15.410Z,82.74
2019-05-10T06:08:35.744Z,83.00
2019-05-10T06:11:04.176Z,83.07
2019-05-10T06:13:32.747Z,83.24
2019-05-10T06:16:06.443Z,82.94
2019-05-10T06:18:31.370Z,82.94
2019-05-10T06:20:59.771Z,82.77
2019-05-10T06:23:29.329Z,82.87
2019-05-10T06:25:58.366Z,82.82
2019-05-10T06:28:56.110Z,82.87
2019-05-10T06:30:57.202Z,82.57
2019-05-10T06:33:25.598Z,82.50
2019-05-10T06:35:54.275Z,82.50
2019-05-10T06:38:22.671Z,82.67
2019-05-10T06:40:51.361Z,83.00
2019-05-10T06:43:19.746Z,82.64
2019-05-10T06:45:52.449Z,82.43
2019-05-10T06:48:26.123Z,82.50
2019-05-10T06:50:48.674Z,82.91
2019-05-10T06:53:17.070Z,82.91
2019-05-10T06:55:45.456Z,83.02
2019-05-10T06:58:14.117Z,83.35
2019-05-10T07:00:44.908Z,83.30
2019-05-10T07:03:13.230Z,83.30
2019-05-10T07:05:41.933Z,83.46
2019-05-10T07:08:19.498Z,83.28
2019-05-10T07:10:40.740Z,83.15
2019-05-10T07:13:09.175Z,83.40
2019-05-10T07:15:42.062Z,83.11
2019-05-10T07:18:07.731Z,83.11
2019-05-10T07:20:36.401Z,83.21
2019-05-10T07:23:06.315Z,83.21
2019-05-10T07:25:37.612Z,83.09
2019-05-10T07:28:09.697Z,82.88
2019-05-10T07:30:41.160Z,82.88
2019-05-10T07:33:07.576Z,82.53
2019-05-10T07:35:38.654Z,82.65
2019-05-10T07:38:06.448Z,82.57
2019-05-10T07:40:35.149Z,82.72
2019-05-10T07:43:03.964Z,82.72
2019-05-10T07:45:32.636Z,82.73
2019-05-10T07:48:02.443Z,82.79
2019-05-10T07:50:31.228Z,82.81
2019-05-10T07:52:59.921Z,82.95
2019-05-10T07:55:29.986Z,82.73
2019-05-10T07:57:58.974Z,82.75
2019-05-10T08:00:28.703Z,82.73
2019-05-10T08:03:07.510Z,83.02
2019-05-10T08:05:29.541Z,83.04
2019-05-10T08:07:58.833Z,83.31
2019-05-10T08:10:28.964Z,83.30
2019-05-10T08:12:59.548Z,83.09
2019-05-10T08:15:30.632Z,83.09
2019-05-10T08:17:58.602Z,83.14
2019-05-10T08:20:42.349Z,83.14
2019-05-10T08:22:57.268Z,82.83
2019-05-10T08:25:29.058Z,83.07
2019-05-10T08:27:56.121Z,82.99
2019-05-10T08:30:42.811Z,83.71
2019-05-10T08:33:09.918Z,83.71
2019-05-10T08:35:38.909Z,83.87
2019-05-10T08:38:08.949Z,83.89
2019-05-10T08:40:38.139Z,83.86
2019-05-10T08:43:09.733Z,83.86
2019-05-10T08:45:38.649Z,83.80
2019-05-10T08:48:07.739Z,83.88
2019-05-10T08:50:49.534Z,83.82
2019-05-10T08:53:10.913Z,83.45
2019-05-10T08:55:36.690Z,83.17
2019-05-10T08:58:05.163Z,82.49
2019-05-10T09:00:45.192Z,81.91
2019-05-10T09:03:09.280Z,81.97
2019-05-10T09:05:34.743Z,82.20
2019-05-10T09:08:19.855Z,82.63
2019-05-10T09:10:46.031Z,82.74
2019-05-10T09:13:14.445Z,82.68
2019-05-10T09:15:51.363Z,82.76
2019-05-10T09:18:13.069Z,82.70
2019-05-10T09:20:42.212Z,82.56
2019-05-10T09:23:15.248Z,82.51
2019-05-10T09:25:42.649Z,82.15
2019-05-10T09:28:16.537Z,82.25
2019-05-10T09:30:54.232Z,82.29
2019-05-10T09:33:14.312Z,82.34
2019-05-10T09:35:47.066Z,82.46
2019-05-10T09:38:12.717Z,82.22
2019-05-10T09:40:50.843Z,82.03
2019-05-10T09:43:14.479Z,82.22
2019-05-10T09:45:42.505Z,82.36
2019-05-10T09:48:12.134Z,82.29
2019-05-10T09:50:46.360Z,81.74
2019-05-10T09:53:13.609Z,81.87
2019-05-10T09:55:45.629Z,81.87
2019-05-10T09:58:11.691Z,81.94
2019-05-10T10:00:40.096Z,82.08
2019-05-10T10:03:08.604Z,82.28
2019-05-10T10:05:39.775Z,82.35
2019-05-10T10:08:09.364Z,82.60
2019-05-10T10:10:37.596Z,82.58
2019-05-10T10:13:13.233Z,82.55
2019-05-10T10:15:37.242Z,82.65
2019-05-10T10:18:06.235Z,83.18
2019-05-10T10:20:42.999Z,84.09
2019-05-10T10:23:07.214Z,84.30
2019-05-10T10:25:40.474Z,84.36
2019-05-10T10:28:10.365Z,84.35
2019-05-10T10:30:37.422Z,83.87
2019-05-10T10:33:11.030Z,83.56
2019-05-10T10:35:37.822Z,82.41
2019-05-10T10:38:08.129Z,82.58
2019-05-10T10:40:44.205Z,82.72
2019-05-10T10:43:07.559Z,82.86
2019-05-10T10:45:37.613Z,82.97
2019-05-10T10:48:08.491Z,83.35
2019-05-10T10:50:36.583Z,83.33
2019-05-10T10:53:04.959Z,83.66
2019-05-10T10:55:36.881Z,83.42
2019-05-10T10:58:03.787Z,84.00
2019-05-10T11:00:34.463Z,83.94
2019-05-10T11:03:04.302Z,83.23
2019-05-10T11:05:32.919Z,83.03
2019-05-10T11:08:01.544Z,81.12
2019-05-10T11:10:31.456Z,81.27
2019-05-10T11:13:02.326Z,80.93
2019-05-10T11:15:35.928Z,80.72
2019-05-10T11:18:00.674Z,80.36
2019-05-10T11:20:31.515Z,80.91
2019-05-10T11:22:59.595Z,80.67
2019-05-10T11:25:28.003Z,80.53
2019-05-10T11:27:58.552Z,80.40
2019-05-10T11:30:26.787Z,80.53
2019-05-10T11:32:55.180Z,80.64
2019-05-10T11:35:28.429Z,80.43
2019-05-10T11:37:54.592Z,80.25
2019-05-10T11:40:29.779Z,80.49
2019-05-10T11:42:53.219Z,80.62
2019-05-10T11:45:26.154Z,80.13
2019-05-10T11:47:54.455Z,80.34
2019-05-10T11:50:31.372Z,80.29
2019-05-10T11:52:52.989Z,79.85
2019-05-10T11:55:21.888Z,80.09
2019-05-10T11:58:01.582Z,79.50
2019-05-10T12:00:28.429Z,79.09
2019-05-10T12:07:54.827Z,79.11
2019-05-10T12:10:25.596Z,78.84
2019-05-10T12:13:06.018Z,78.40
2019-05-10T12:15:25.284Z,76.25
2019-05-10T12:17:58.879Z,76.04
2019-05-10T12:20:38.954Z,75.99
2019-05-10T12:22:53.143Z,76.49
2019-05-10T12:25:41.569Z,76.29
2019-05-10T12:26:58.896Z,78.50
2019-05-10T12:27:52.541Z,77.81
2019-05-10T12:30:21.768Z,74.75
2019-05-10T12:33:05.826Z,75.26
2019-05-10T12:35:21.300Z,75.86
2019-05-10T12:37:53.928Z,74.03
2019-05-10T12:40:23.778Z,72.85
2019-05-10T12:42:50.232Z,72.54
2019-05-10T12:45:23.005Z,71.73
2019-05-10T12:47:51.425Z,67.08
2019-05-10T12:50:19.604Z,69.37
2019-05-10T12:52:53.645Z,69.23
2019-05-10T12:55:18.265Z,68.91
2019-05-10T12:57:46.656Z,67.51
2019-05-10T13:00:16.094Z,64.62
2019-05-10T13:02:50.507Z,65.43
2019-05-10T13:05:15.778Z,66.38
2019-05-10T13:07:44.613Z,66.72
2019-05-10T13:10:13.501Z,64.10
2019-05-10T13:12:47.384Z,65.62
2019-05-10T13:15:12.888Z,66.76
2019-05-10T13:17:44.028Z,66.15
2019-05-10T13:20:11.862Z,68.68
2019-05-10T13:22:40.350Z,64.63
2019-05-10T13:25:09.266Z,65.79
2019-05-10T13:27:38.198Z,64.48
2019-05-10T13:30:07.916Z,61.51
2019-05-10T13:32:36.335Z,63.01
2019-05-10T13:35:05.967Z,65.04
2019-05-10T13:37:34.896Z,64.45
2019-05-10T13:40:07.738Z,64.24
2019-05-10T13:42:36.428Z,62.37
2019-05-10T13:45:05.619Z,58.74
2019-05-10T13:47:34.035Z,58.06
2019-05-10T13:50:02.492Z,58.55
2019-05-10T13:52:37.502Z,59.33
2019-05-10T13:55:01.114Z,59.12
2019-05-10T13:57:29.503Z,57.73
2019-05-10T13:59:58.035Z,59.70
2019-05-10T14:02:32.487Z,58.41
2019-05-10T14:04:56.547Z,57.72
2019-05-10T14:07:25.025Z,55.76
2019-05-10T14:09:53.585Z,54.35
2019-05-10T14:12:23.715Z,52.04
2019-05-10T14:14:55.614Z,52.79
2019-05-10T14:17:23.678Z,52.24
2019-05-10T14:19:52.227Z,52.18
2019-05-10T14:22:21.220Z,53.36
2019-05-10T14:24:53.300Z,55.00
2019-05-10T14:27:21.407Z,56.57
2019-05-10T14:29:53.417Z,57.77
2019-05-10T14:32:21.870Z,56.28
2019-05-10T14:34:50.274Z,55.88
2019-05-10T14:37:19.859Z,53.62
2019-05-10T14:39:49.052Z,55.56
2019-05-10T14:42:17.497Z,54.92
2019-05-10T14:44:48.305Z,52.43
2019-05-10T14:47:16.704Z,50.82
2019-05-10T14:49:46.822Z,53.02
2019-05-10T14:52:15.236Z,53.28
2019-05-10T14:54:49.368Z,54.74
2019-05-10T14:57:13.836Z,53.11
2019-05-10T14:59:42.221Z,53.90
2019-05-10T15:02:16.992Z,54.71
2019-05-10T15:04:46.370Z,53.92
2019-05-10T15:07:14.246Z,53.79
2019-05-10T15:09:41.313Z,51.19
2019-05-10T15:12:15.190Z,52.97
2019-05-10T15:14:40.072Z,54.15
2019-05-10T15:17:08.454Z,53.69
2019-05-10T15:19:36.867Z,54.39
2019-05-10T15:22:05.615Z,54.62
2019-05-10T15:24:34.280Z,52.72
2019-05-10T15:27:02.688Z,51.00
2019-05-10T15:29:31.348Z,50.93
2019-05-10T15:31:59.843Z,52.70
2019-05-10T15:34:28.534Z,52.65
2019-05-10T15:37:02.673Z,52.61
2019-05-10T15:39:28.623Z,52.26
2019-05-10T15:41:59.280Z,52.92
2019-05-10T15:44:31.513Z,52.59
2019-05-10T15:46:57.746Z,51.13
2019-05-10T15:49:26.147Z,51.59
2019-05-10T15:52:00.508Z,51.06
2019-05-10T15:54:24.855Z,52.17
2019-05-10T15:56:55.559Z,49.32
2019-05-10T15:59:23.347Z,50.73
2019-05-10T16:01:51.754Z,50.38
2019-05-10T16:04:20.141Z,51.70
2019-05-10T16:06:48.539Z,50.16
2019-05-10T16:09:19.122Z,51.21
2019-05-10T16:11:47.371Z,51.14
2019-05-10T16:14:15.828Z,50.30
2019-05-10T16:16:44.293Z,52.73
2019-05-10T16:19:17.941Z,53.28
2019-05-10T16:21:46.592Z,54.79
2019-05-10T16:24:13.555Z,54.89
2019-05-10T16:26:42.472Z,54.07
2019-05-10T16:29:11.164Z,53.91
2019-05-10T16:31:39.560Z,53.52
2019-05-10T16:34:08.446Z,55.04
2019-05-10T16:36:36.876Z,56.06
2019-05-10T16:39:07.077Z,55.74
2019-05-10T16:41:35.473Z,56.79
2019-05-10T16:44:04.235Z,62.87
2019-05-10T16:46:32.631Z,69.19
2019-05-10T16:49:01.028Z,71.25
2019-05-10T16:51:29.513Z,74.07
2019-05-10T16:53:58.191Z,76.99
2019-05-10T16:56:27.264Z,77.79
2019-05-10T16:58:59.176Z,79.33
2019-05-10T17:01:27.715Z,79.47
2019-05-10T17:04:00.085Z,81.01
2019-05-10T17:06:26.471Z,80.67
2019-05-10T17:08:54.882Z,78.95
2019-05-10T17:11:23.276Z,78.85
2019-05-10T17:13:58.335Z,78.76
2019-05-10T17:16:27.127Z,76.91
2019-05-10T17:19:00.517Z,76.40
2019-05-10T17:21:29.135Z,76.52
2019-05-10T17:23:57.953Z,76.25
2019-05-10T17:26:26.433Z,76.55
2019-05-10T17:28:54.988Z,76.76
2019-05-10T17:31:23.635Z,77.06
2019-05-10T17:34:00.124Z,77.36
2019-05-10T17:36:30.476Z,76.71
2019-05-10T17:38:58.879Z,76.24
2019-05-10T17:41:27.538Z,75.74
2019-05-10T17:43:56.204Z,75.86
2019-05-10T17:46:24.929Z,76.45
2019-05-10T17:48:53.555Z,77.24
2019-05-10T17:51:22.217Z,77.14
2019-05-10T17:53:55.066Z,76.88
2019-05-10T17:56:20.731Z,76.54
2019-05-10T17:58:49.140Z,76.71
2019-05-10T18:01:17.531Z,76.75
2019-05-10T18:03:45.926Z,76.42
2019-05-10T18:06:23.445Z,76.62
2019-05-10T18:08:44.524Z,76.71
2019-05-10T18:11:17.246Z,76.59
2019-05-10T18:13:45.640Z,76.66
2019-05-10T18:16:14.144Z,77.13
2019-05-10T18:18:46.729Z,77.19
2019-05-10T18:21:15.947Z,77.26
2019-05-10T18:23:43.204Z,77.43
2019-05-10T18:26:11.663Z,77.47
2019-05-10T18:28:40.094Z,77.63
2019-05-10T18:31:08.478Z,77.74
2019-05-10T18:33:44.819Z,77.86
2019-05-10T18:36:11.065Z,78.05
2019-05-10T18:38:39.595Z,78.19
2019-05-10T18:41:10.084Z,78.31
2019-05-10T18:43:40.817Z,78.42
2019-05-10T18:46:09.455Z,78.64
2019-05-10T18:48:37.894Z,78.80
2019-05-10T18:51:06.353Z,79.23
2019-05-10T18:53:34.738Z,79.68
2019-05-10T18:56:03.150Z,79.57
2019-05-10T18:58:31.726Z,79.56
2019-05-10T19:01:03.132Z,79.59
2019-05-10T19:03:35.368Z,79.75
2019-05-10T19:06:11.175Z,79.95
2019-05-10T19:08:34.735Z,80.91
2019-05-10T19:11:04.260Z,81.42
2019-05-10T19:13:34.658Z,81.98
2019-05-10T19:16:03.165Z,81.44
2019-05-10T19:18:31.827Z,81.07
2019-05-10T19:21:00.232Z,80.85
2019-05-10T19:23:28.615Z,80.98
2019-05-10T19:25:57.039Z,81.01
2019-05-10T19:28:28.395Z,81.14
2019-05-10T19:30:58.581Z,80.80
2019-05-10T19:33:29.608Z,81.17
2019-05-10T19:35:57.003Z,81.26
2019-05-10T19:38:25.425Z,81.14
2019-05-10T19:40:53.818Z,80.93
2019-05-10T19:43:23.990Z,81.00
2019-05-10T19:45:57.621Z,81.63
2019-05-10T19:48:22.453Z,81.52
2019-05-10T19:50:50.867Z,81.42
2019-05-10T19:53:19.248Z,81.66
2019-05-10T19:55:51.526Z,80.91
2019-05-10T19:58:17.756Z,80.67
2019-05-10T20:00:46.171Z,80.30
2019-05-10T20:03:14.553Z,80.46
2019-05-10T20:05:42.957Z,80.58
2019-05-10T20:08:11.674Z,80.50
2019-05-10T20:10:42.880Z,80.50
2019-05-10T20:13:11.294Z,80.50
2019-05-10T20:15:39.683Z,80.80
2019-05-10T20:18:08.184Z,80.22
2019-05-10T20:20:36.869Z,80.22
2019-05-10T20:23:05.281Z,80.23
2019-05-10T20:25:33.754Z,80.23
2019-05-10T20:28:02.161Z,80.30
2019-05-10T20:30:30.567Z,80.20
2019-05-10T20:32:58.980Z,80.51
2019-05-10T20:35:27.377Z,80.46
2019-05-10T20:38:02.164Z,80.46
2019-05-10T20:40:25.924Z,80.47
2019-05-10T20:42:54.319Z,80.80
2019-05-10T20:45:22.837Z,80.80
2019-05-10T20:47:51.241Z,80.55
2019-05-10T20:50:19.729Z,80.55
2019-05-10T20:52:48.396Z,80.81
2019-05-10T20:55:17.392Z,80.53
2019-05-10T20:57:45.817Z,80.22
2019-05-10T21:00:14.351Z,79.98
2019-05-10T21:02:43.057Z,80.02
2019-05-10T21:05:11.611Z,79.99
2019-05-10T21:07:40.037Z,79.61
2019-05-10T21:10:08.735Z,79.60
2019-05-10T21:12:37.406Z,79.51
2019-05-10T21:15:07.938Z,79.51
2019-05-10T21:17:36.654Z,79.26
2019-05-10T21:20:09.580Z,79.26
2019-05-10T21:22:38.042Z,79.05
2019-05-10T21:25:09.497Z,78.62
2019-05-10T21:27:37.865Z,78.38
2019-05-10T21:30:07.093Z,77.91
2019-05-10T21:32:39.616Z,77.75
2019-05-10T21:35:08.108Z,77.77
2019-05-10T21:37:36.785Z,77.91
2019-05-10T21:40:09.088Z,77.66
2019-05-10T21:42:37.480Z,77.76
2019-05-10T21:45:06.482Z,77.89
2019-05-10T21:47:50.395Z,78.33
2019-05-10T21:50:06.927Z,78.26
2019-05-10T21:52:38.781Z,78.15
2019-05-10T21:55:07.567Z,77.92
2019-05-10T21:57:35.965Z,78.16
2019-05-10T22:00:06.705Z,78.16
2019-05-10T22:02:35.362Z,77.88
2019-05-10T22:05:05.195Z,77.63
2019-05-10T22:07:33.595Z,77.82
2019-05-10T22:10:02.249Z,77.56
2019-05-10T22:12:30.647Z,77.65
2019-05-10T22:14:59.322Z,78.10
2019-05-10T22:17:27.716Z,77.72
2019-05-10T22:19:56.111Z,77.44
2019-05-10T22:22:24.527Z,77.37
2019-05-10T22:24:53.167Z,77.31
2019-05-10T22:27:21.568Z,77.54
2019-05-10T22:29:49.966Z,77.42
2019-05-10T22:32:18.366Z,77.48
2019-05-10T22:34:46.996Z,77.74
2019-05-10T22:37:15.699Z,77.98
2019-05-10T22:39:44.197Z,77.98
2019-05-10T22:42:12.695Z,78.03
2019-05-10T22:44:41.349Z,78.08
2019-05-10T22:47:09.757Z,78.26
2019-05-10T22:49:38.369Z,78.43
2019-05-10T22:52:06.789Z,78.54
2019-05-10T22:54:35.197Z,78.63
2019-05-10T22:57:04.089Z,79.02
2019-05-10T22:59:32.779Z,78.78
2019-05-10T23:02:01.166Z,78.78
2019-05-10T23:04:30.408Z,78.97
2019-05-10T23:06:58.810Z,79.14
2019-05-10T23:09:27.539Z,79.26
2019-05-10T23:11:55.946Z,79.37
2019-05-10T23:14:24.334Z,79.56
2019-05-10T23:16:52.739Z,79.75
2019-05-10T23:19:21.116Z,79.87
2019-05-10T23:21:49.583Z,80.06
2019-05-10T23:24:18.213Z,79.92
2019-05-10T23:26:46.831Z,79.91
2019-05-10T23:29:15.592Z,80.06
2019-05-10T23:31:43.994Z,80.20
2019-05-10T23:34:12.405Z,80.36
2019-05-10T23:36:40.791Z,80.36
2019-05-10T23:39:09.192Z,80.42
2019-05-10T23:41:37.643Z,80.57
2019-05-10T23:44:06.269Z,80.41
2019-05-10T23:46:34.669Z,80.25
2019-05-10T23:49:03.349Z,80.24
2019-05-10T23:51:31.749Z,80.43
2019-05-10T23:54:00.145Z,80.47
2019-05-10T23:56:28.863Z,80.59
2019-05-10T23:58:57.656Z,80.73
